This is the latest recevied weather packets stored in our database for station/object JA3QOS-13. If no packets are shown the sender has not sent any weather packets the latest 10 day(s).
| Time | Temp. | Humidity | Pressure | Rain* | Wind** | Luminosity | Snow |
|---|---|---|---|---|---|---|---|
| 1787716804 | 30.56° C | 77% | 1012.5 hPa | 0 mm | - | - | - |
| 1787715003 | 28.89° C | 82% | 1012.5 hPa | 0 mm | - | - | - |
| 1787713204 | 28.33° C | 83% | 1012.7 hPa | 0 mm | - | - | - |
| 1787711404 | 28.33° C | 85% | 1012.7 hPa | 0 mm | - | - | - |
| 1787709603 | 29.44° C | 83% | 1012.9 hPa | 0 mm | - | - | - |
| 1787707803 | 29.44° C | 83% | 1012.8 hPa | 0 mm | - | - | - |
| 1787706010 | 28.33° C | 86% | 1013.1 hPa | 0 mm | - | - | - |
| 1787704204 | 27.78° C | 88% | 1013.3 hPa | 0 mm | - | - | - |
| 1787702408 | 26.67° C | 91% | 1013 hPa | 0 mm | - | - | - |
| 1787700604 | 25.56° C | 95% | 1013.1 hPa | 0 mm | - | - | - |
| 1787698803 | 25° C | 96% | 1013.3 hPa | 0 mm | - | - | - |
| 1787697004 | 23.89° C | 99% | 1013.4 hPa | 0 mm | - | - | - |
| 1787695204 | 23.33° C | 99% | 1013.1 hPa | 0 mm | - | - | - |
| 1787693404 | 23.33° C | 99% | 1013.3 hPa | 0 mm | - | - | - |
| 1787691604 | 22.78° C | 99% | 1013.3 hPa | 0 mm | - | - | - |
| 1787689803 | 22.78° C | 99% | 1013.2 hPa | 0 mm | - | - | - |
| 1787688004 | 23.33° C | 99% | 1012.8 hPa | 0 mm | - | - | - |
| 1787686203 | 22.78° C | 99% | 1013.1 hPa | 0 mm | - | - | - |
| 1787684404 | 22.78° C | 99% | 1013.2 hPa | 0 mm | - | - | - |
| 1787682604 | 22.78° C | 99% | 1013.2 hPa | 0 mm | - | - | - |
| 1787680804 | 23.33° C | 99% | 1013.1 hPa | 0 mm | - | - | - |
| 1787679004 | 23.33° C | 97% | 1013.4 hPa | 0 mm | - | - | - |
| 1787677204 | 23.33° C | 99% | 1013.4 hPa | 0 mm | - | - | - |
| 1787675404 | 23.33° C | 99% | 1013.8 hPa | 0 mm | - | - | - |
| 1787673604 | 23.33° C | 99% | 1013.9 hPa | 0 mm | - | - | - |
* Rain latest hour (hover to see other rain measurements)
** Current wind speed in m/s (hover to see current wind gust speed)